Flight Track Log - Related Links

Times and Time Zones

All times are in EDT time to prevent confusion due to time zone crossing. See the DAL1906 flight status page for this flight to view local times or setup timezone preferences in your user account.

Time Position Orientation Groundspeed Altitude Reporting Facility
EDT Latitude Longitude Course Direction KTS MPH feet Rate Location/Type
Sun 08:08:32 PM 33.9158 -118.5192 214° Southwest 200 230 3,500  Level Los Angeles Center
Sun 08:09:31 PM 33.8714 -118.5556 107° East 226 260 5,500 2,100 Climbing Los Angeles Center
Sun 08:10:32 PM 33.8558 -118.4925 34° Northeast 113 130 7,700 2,132 Climbing Los Angeles Center
Sun 08:11:32 PM 33.9194 -118.4417 50° Northeast 141 162 9,800 1,650 Climbing Los Angeles Center
Sun 08:12:32 PM 33.9731 -118.3656 55° Northeast 228 262 11,000 1,500 Climbing Los Angeles Center
Sun 08:13:32 PM 34.0269 -118.2717 55° Northeast 293 337 12,800 1,700 Climbing Los Angeles Center
Sun 08:14:32 PM 34.0722 -118.1928 56° Northeast 324 373 14,400 1,864 Climbing Los Angeles Center
Sun 08:15:44 PM 34.1344 -118.0811 56° Northeast 349 402 16,900 1,727 Climbing Los Angeles Center
Sun 08:16:44 PM 34.2097 -117.9475 55° Northeast 377 434 18,200 1,600 Climbing Los Angeles Center
Sun 08:17:44 PM 34.2803 -117.8256 58° Northeast 411 473 20,100 1,750 Climbing Los Angeles Center
Sun 08:18:44 PM 34.3467 -117.6989 56° Northeast 428 493 21,700 1,600 Climbing Los Angeles Center
Sun 08:19:44 PM 34.4192 -117.5692 57° Northeast 452 520 23,300 1,550 Climbing Los Angeles Center
Sun 08:20:44 PM 34.4917 -117.4317 50° Northeast 467 537 24,800 1,462 Climbing Los Angeles Center
Sun 08:21:43 PM 34.5808 -117.3044 49° Northeast 481 554 26,200 1,550 Climbing Los Angeles Center
Sun 08:22:44 PM 34.6800 -117.1644 48° Northeast 496 571 27,900 1,686 Climbing Los Angeles Center
Sun 08:23:44 PM 34.7708 -117.0417 50° Northeast 496 571 29,600 2,050 Climbing Los Angeles Center
Sun 08:24:44 PM 34.8553 -116.9186 48° Northeast 489 563 32,000 1,800 Climbing Los Angeles Center
Sun 08:25:44 PM 34.9414 -116.8003 50° Northeast 476 548 33,200 1,100 Climbing Los Angeles Center
Sun 08:26:44 PM 35.0233 -116.6819 48° Northeast 465 535 34,200 900 Climbing Los Angeles Center
Sun 08:27:44 PM 35.1094 -116.5631 49° Northeast 460 529 35,000 400 Climbing Los Angeles Center
Sun 08:28:44 PM 35.1933 -116.4442 49° Northeast 460 529 35,000  Level Los Angeles Center
Sun 08:29:44 PM 35.2792 -116.3222 50° Northeast 460 529 35,000  Level Los Angeles Center
Sun 08:30:44 PM 35.3628 -116.2003 50° Northeast 460 529 35,000  Level Los Angeles Center
Sun 08:31:44 PM 35.4464 -116.0781 50° Northeast 460 529 35,000  Level Los Angeles Center
Sun 08:32:44 PM 35.5297 -115.9581 55° Northeast 460 529 35,000 300 Level Los Angeles Center
Sun 08:33:44 PM 35.6044 -115.8275 66° East 460 529 35,600 900 Climbing Los Angeles Center
Sun 08:34:44 PM 35.6561 -115.6842 67° East 455 524 36,800 700 Climbing Los Angeles Center
Sun 08:35:44 PM 35.7078 -115.5356 66° East 455 524 37,000 100 Climbing Los Angeles Center
Sun 08:36:44 PM 35.7611 -115.3892 67° East 460 529 37,000  Level Los Angeles Center
Sun 08:37:44 PM 35.8125 -115.2378 66° East 465 535 37,000  Level Los Angeles Center
Sun 08:38:44 PM 35.8675 -115.0858 66° East 470 541 37,000  Level Los Angeles Center
Sun 08:39:44 PM 35.9225 -114.9364 66° East 475 547 37,000  Level Los Angeles Center
Sun 08:40:44 PM 35.9753 -114.7867 68° East 480 552 37,000  Level Los Angeles Center
Sun 08:41:44 PM 36.0256 -114.6344 67° East 480 552 37,000  Level Los Angeles Center
Sun 08:42:44 PM 36.0778 -114.4819 66° East 480 552 37,000  Level Los Angeles Center
Sun 08:43:44 PM 36.1300 -114.3344 66° East 480 552 37,000  Level Los Angeles Center
Sun 08:44:44 PM 36.1842 -114.1839 68° East 480 552 37,000  Level Los Angeles Center
Sun 08:45:44 PM 36.2339 -114.0333 67° East 475 547 37,000  Level Los Angeles Center
Sun 08:46:44 PM 36.2853 -113.8853 68° East 475 547 37,000  Level Los Angeles Center
Sun 08:47:44 PM 36.3347 -113.7342 66° East 475 547 37,000  Level Los Angeles Center
Sun 08:48:44 PM 36.3858 -113.5883 68° East 464 534 37,000  Level Los Angeles Center
Sun 08:49:44 PM 36.4328 -113.4422 67° East 464 534 37,000  Level Los Angeles Center
Sun 08:50:44 PM 36.4836 -113.2908 69° East 464 534 37,000  Level Los Angeles Center
Sun 08:51:44 PM 36.5300 -113.1367 67° East 464 534 37,000  Level Los Angeles Center
Sun 08:52:44 PM 36.5806 -112.9847 67° East 464 534 37,000  Level Los Angeles Center
Sun 08:53:44 PM 36.6308 -112.8353 69° East 464 534 37,000  Level Los Angeles Center
Sun 08:54:44 PM 36.6692 -112.7119 68° East 464 534 37,000  Level Los Angeles Center
Sun 08:55:44 PM 36.7228 -112.5439 67° East 464 534 37,000  Level Los Angeles Center
Sun 08:56:44 PM 36.7725 -112.3939 68° East 464 534 37,000  Level Los Angeles Center
Sun 08:57:44 PM 36.8219 -112.2411 69° East 464 534 37,000  Level Los Angeles Center
Sun 08:58:33 PM 36.8592 -112.1211 68° East 475 547 37,000  Level Denver Center
Sun 08:59:35 PM 36.9092 -111.9658 68° East 476 548 37,000  Level Denver Center
Sun 09:00:38 PM 36.9681 -111.7800 68° East 475 547 37,000  Level Denver Center
Sun 09:01:40 PM 37.0164 -111.6264 68° East 472 543 37,000  Level Denver Center
Sun 09:02:42 PM 37.0653 -111.4728 70° East 471 542 37,000  Level Denver Center
Sun 09:03:44 PM 37.1100 -111.3208 69° East 466 536 37,000  Level Denver Center
Sun 09:04:46 PM 37.1586 -111.1642 69° East 473 544 37,000  Level Denver Center
Sun 09:05:49 PM 37.2067 -111.0067 69° East 476 548 37,000  Level Denver Center
Sun 09:06:51 PM 37.2544 -110.8497 69° East 476 548 37,000  Level Denver Center
Sun 09:07:53 PM 37.3017 -110.6931 69° East 474 545 37,000  Level Denver Center
Sun 09:08:55 PM 37.3500 -110.5347 70° East 478 550 37,000  Level Denver Center
Sun 09:09:57 PM 37.3967 -110.3769 69° East 476 548 37,000  Level Denver Center
Sun 09:11:00 PM 37.4528 -110.1878 69° East 475 547 37,000  Level Denver Center
Sun 09:12:02 PM 37.5011 -110.0261 70° East 474 545 37,000  Level Denver Center
Sun 09:13:04 PM 37.5450 -109.8758 70° East 476 548 37,000  Level Denver Center
Sun 09:14:06 PM 37.5953 -109.7033 70° East 472 543 37,000  Level Denver Center
Sun 09:15:09 PM 37.6386 -109.5558 70° East 469 540 37,000  Level Denver Center
Sun 09:16:11 PM 37.6808 -109.4081 70° East 468 539 37,000  Level Denver Center
Sun 09:17:13 PM 37.7306 -109.2356 70° East 467 537 37,000  Level Denver Center
Sun 09:18:15 PM 37.7725 -109.0906 70° East 461 531 37,000  Level Denver Center
Sun 09:19:18 PM 37.8206 -108.9197 70° East 461 531 37,000  Level Denver Center
Sun 09:20:20 PM 37.8622 -108.7725 71° East 463 533 37,000  Level Denver Center
Sun 09:21:22 PM 37.9103 -108.5992 70° East 465 535 37,000  Level Denver Center
Sun 09:22:24 PM 37.9525 -108.4497 70° East 467 537 37,000  Level Denver Center
Sun 09:23:27 PM 38.0006 -108.2781 71° East 466 536 37,000  Level Denver Center
Sun 09:24:29 PM 38.0403 -108.1292 71° East 466 536 37,000  Level Denver Center
Sun 09:25:31 PM 38.0881 -107.9542 70° East 468 539 37,000  Level Denver Center
Sun 09:26:34 PM 38.1294 -107.8069 71° East 468 539 37,000  Level Denver Center
Sun 09:27:36 PM 38.1750 -107.6342 71° East 465 535 37,000  Level Denver Center
Sun 09:28:38 PM 38.2153 -107.4867 71° East 463 533 37,000  Level Denver Center
Sun 09:29:41 PM 38.2614 -107.3147 72° East 462 532 37,000  Level Denver Center
Sun 09:30:43 PM 38.2997 -107.1661 71° East 462 532 37,000  Level Denver Center
Sun 09:31:46 PM 38.3458 -106.9925 71° East 464 534 37,000  Level Denver Center
Sun 09:32:48 PM 38.3847 -106.8439 72° East 463 533 37,000  Level Denver Center
Sun 09:33:50 PM 38.4297 -106.6694 72° East 465 535 37,000  Level Denver Center
Sun 09:34:53 PM 38.4750 -106.4942 72° East 467 537 37,000  Level Denver Center
Sun 09:35:55 PM 38.5142 -106.3439 72° East 467 537 37,000  Level Denver Center
Sun 09:36:58 PM 38.5592 -106.1672 72° East 469 540 37,000  Level Denver Center
Sun 09:38:00 PM 38.6003 -106.0022 72° East 469 540 37,000  Level Denver Center
Sun 09:39:03 PM 38.6411 -105.8419 72° East 466 536 37,000  Level Denver Center
Sun 09:40:05 PM 38.6806 -105.6850 72° East 463 533 37,000  Level Denver Center
Sun 09:41:08 PM 38.7200 -105.5269 73° East 462 532 37,000  Level Denver Center
Sun 09:42:10 PM 38.7589 -105.3667 72° East 467 537 37,000  Level Denver Center
Sun 09:43:13 PM 38.7975 -105.2092 73° East 463 533 37,000  Level Denver Center
Sun 09:44:15 PM 38.8419 -105.0244 73° East 463 533 37,000  Level Denver Center
Sun 09:45:18 PM 38.8806 -104.8658 72° East 464 534 37,000  Level Denver Center
Sun 09:46:20 PM 38.9194 -104.7075 73° East 464 534 37,000  Level Denver Center
Sun 09:47:23 PM 38.9569 -104.5497 73° East 462 532 37,000  Level Denver Center
Sun 09:48:25 PM 39.0000 -104.3664 73° East 460 529 37,000  Level Denver Center
Sun 09:49:28 PM 39.0369 -104.2086 73° East 460 529 37,000  Level Denver Center
Sun 09:50:30 PM 39.0742 -104.0517 73° East 457 526 37,000  Level Denver Center
Sun 09:51:33 PM 39.1111 -103.8931 73° East 460 529 37,000  Level Denver Center
Sun 09:52:35 PM 39.1483 -103.7331 74° East 462 532 37,000  Level Denver Center
Sun 09:53:38 PM 39.1903 -103.5456 74° East 464 534 37,000  Level Denver Center
Sun 09:54:40 PM 39.2261 -103.3864 74° East 462 532 37,000  Level Denver Center
Sun 09:55:43 PM 39.2628 -103.2258 74° East 463 533 37,000  Level Denver Center
Sun 09:56:45 PM 39.2994 -103.0639 74° East 465 535 37,000  Level Denver Center
Sun 09:57:48 PM 39.3361 -102.9003 74° East 470 541 37,000  Level Denver Center
Sun 09:58:50 PM 39.3767 -102.7108 74° East 467 537 37,000  Level Denver Center
Sun 09:59:53 PM 39.4122 -102.5467 74° East 470 541 37,000  Level Denver Center
Sun 10:00:55 PM 39.4500 -102.3772 75° East 469 540 37,000  Level Denver Center
Sun 10:01:58 PM 39.4825 -102.2225 74° East 468 539 37,000  Level Denver Center
Sun 10:03:01 PM 39.5206 -102.0447 75° East 463 533 37,000  Level Denver Center
Sun 10:04:03 PM 39.5525 -101.8925 74° East 459 528 37,000  Level Denver Center
Sun 10:05:06 PM 39.5906 -101.7156 75° East 458 527 37,000  Level Denver Center
Sun 10:06:09 PM 39.6214 -101.5631 75° East 458 527 37,000  Level Denver Center
Sun 10:07:11 PM 39.6586 -101.3858 75° East 457 526 37,000  Level Denver Center
Sun 10:08:13 PM 39.6900 -101.2317 75° East 461 531 37,000  Level Denver Center
Sun 10:09:16 PM 39.7272 -101.0525 76° East 462 532 37,000  Level Denver Center
Sun 10:10:18 PM 39.7631 -100.8711 75° East 465 535 37,000  Level Denver Center
Sun 10:11:21 PM 39.7939 -100.7169 75° East 463 533 37,000  Level Denver Center
Sun 10:12:23 PM 39.8297 -100.5367 75° East 463 533 37,000  Level Denver Center
Sun 10:13:26 PM 39.8606 -100.3822 76° East 463 533 37,000  Level Denver Center
Sun 10:14:28 PM 39.8903 -100.2289 76° East 460 529 37,000  Level Denver Center
Sun 10:15:30 PM 39.9281 -100.0353 76° East 460 529 37,000  Level Denver Center
Sun 10:16:33 PM 39.9592 -99.8736 76° East 461 531 37,000  Level Denver Center
Sun 10:17:35 PM 39.9894 -99.7125 76° East 460 529 37,000  Level Denver Center
Sun 10:18:38 PM 40.0206 -99.5508 76° East 461 531 37,000  Level Denver Center
Sun 10:19:40 PM 40.0511 -99.3881 76° East 462 532 37,000  Level Denver Center
Sun 10:20:42 PM 40.0867 -99.1936 76° East 461 531 37,000  Level Denver Center
Sun 10:21:45 PM 40.1167 -99.0336 77° East 458 527 37,000  Level Denver Center
Sun 10:22:47 PM 40.1456 -98.8725 76° East 456 525 37,000  Level Denver Center
Sun 10:23:41 PM 40.1756 -98.7133 77° East 462 532 37,000  Level Minneapolis Center
Sun 10:24:41 PM 40.2042 -98.5528 77° East 462 532 37,000  Level Minneapolis Center
Sun 10:25:41 PM 40.2322 -98.3922 76° East 462 532 37,000  Level Minneapolis Center
Sun 10:26:41 PM 40.2622 -98.2344 77° East 457 526 37,000  Level Minneapolis Center
Sun 10:27:41 PM 40.2903 -98.0708 77° East 451 519 37,000  Level Minneapolis Center
Sun 10:28:41 PM 40.3178 -97.9125 77° East 446 513 37,000  Level Minneapolis Center
Sun 10:29:41 PM 40.3450 -97.7539 77° East 446 513 37,000  Level Minneapolis Center
Sun 10:30:41 PM 40.3742 -97.5928 78° East 446 513 37,000  Level Minneapolis Center
Sun 10:31:41 PM 40.4008 -97.4314 79° East 446 513 37,000  Level Minneapolis Center
Sun 10:32:41 PM 40.4231 -97.2775 79° East 439 505 37,000  Level Minneapolis Center
Sun 10:33:41 PM 40.4475 -97.1156 77° East 439 505 37,000  Level Minneapolis Center
Sun 10:34:41 PM 40.4756 -96.9567 78° East 445 512 37,000  Level Minneapolis Center
Sun 10:35:41 PM 40.5014 -96.7972 77° East 451 519 37,000  Level Minneapolis Center
Sun 10:36:41 PM 40.5292 -96.6325 78° East 451 519 37,000  Level Minneapolis Center
Sun 10:37:41 PM 40.5547 -96.4675 78° East 451 519 37,000  Level Minneapolis Center
Sun 10:38:41 PM 40.5800 -96.3050 78° East 451 519 37,000  Level Minneapolis Center
Sun 10:39:41 PM 40.6047 -96.1450 79° East 446 513 37,000  Level Minneapolis Center
Sun 10:40:42 PM 40.6297 -95.9797 78° East 451 519 37,000  Level Minneapolis Center
Sun 10:41:41 PM 40.6561 -95.8169 79° East 451 519 37,000  Level Minneapolis Center
Sun 10:42:41 PM 40.6781 -95.6675 78° East 456 525 37,000  Level Minneapolis Center
Sun 10:43:41 PM 40.7042 -95.5017 79° East 456 525 37,000  Level Minneapolis Center
Sun 10:44:41 PM 40.7281 -95.3386 78° East 461 531 37,000  Level Minneapolis Center
Sun 10:45:41 PM 40.7536 -95.1725 79° East 461 531 37,000  Level Minneapolis Center
Sun 10:46:41 PM 40.7769 -95.0061 79° East 461 531 37,000  Level Minneapolis Center
Sun 10:47:41 PM 40.8019 -94.8428 80° East 456 525 37,000  Level Minneapolis Center
Sun 10:48:42 PM 40.8250 -94.6761 80° East 456 525 37,000  Level Minneapolis Center
Sun 10:49:41 PM 40.8475 -94.5122 79° East 456 525 37,000  Level Minneapolis Center
Sun 10:50:42 PM 40.8719 -94.3456 79° East 461 531 37,000  Level Minneapolis Center
Sun 10:52:27 PM 40.9156 -94.0519 81° East 462 532 37,000  Level Chicago Center
Sun 10:53:27 PM 40.9369 -93.8803 79° East 467 537 37,000  Level Chicago Center
Sun 10:54:27 PM 40.9603 -93.7142 79° East 462 532 37,000  Level Chicago Center
Sun 10:55:27 PM 40.9853 -93.5425 79° East 468 539 37,000  Level Chicago Center
Sun 10:56:28 PM 41.0103 -93.3706 80° East 468 539 37,000  Level Chicago Center
Sun 10:57:27 PM 41.0328 -93.2011 79° East 468 539 37,000  Level Chicago Center
Sun 10:58:27 PM 41.0572 -93.0292 79° East 473 544 37,000  Level Chicago Center
Sun 10:59:27 PM 41.0814 -92.8569 80° East 473 544 37,000  Level Chicago Center
Sun 11:00:27 PM 41.1033 -92.6844 79° East 473 544 37,000  Level Chicago Center
Sun 11:01:27 PM 41.1269 -92.5147 81° East 468 539 37,000  Level Chicago Center
Sun 11:02:27 PM 41.1483 -92.3419 80° East 468 539 37,000  Level Chicago Center
Sun 11:03:27 PM 41.1714 -92.1664 81° East 475 547 37,000  Level Chicago Center
Sun 11:04:27 PM 41.1922 -91.9989 80° East 470 541 37,000  Level Chicago Center
Sun 11:05:27 PM 41.2147 -91.8286 81° East 464 534 37,000  Level Chicago Center
Sun 11:06:27 PM 41.2347 -91.6639 82° East 464 534 37,000  Level Chicago Center
Sun 11:07:27 PM 41.2550 -91.4794 81° East 464 534 37,000  Level Chicago Center
Sun 11:08:27 PM 41.2722 -91.3392 79° East 469 540 37,000  Level Chicago Center
Sun 11:09:27 PM 41.3006 -91.1436 82° East 463 533 37,000  Level Chicago Center
Sun 11:10:27 PM 41.3175 -90.9756 81° East 463 533 37,000  Level Chicago Center
Sun 11:11:27 PM 41.3386 -90.8044 81° East 468 539 37,000  Level Chicago Center
Sun 11:12:27 PM 41.3594 -90.6336 82° East 463 533 37,000  Level Chicago Center
Sun 11:13:27 PM 41.3781 -90.4594 82° East 463 533 37,000  Level Chicago Center
Sun 11:14:27 PM 41.3961 -90.2911 81° East 463 533 37,000  Level Chicago Center
Sun 11:15:27 PM 41.4161 -90.1169 80° East 463 533 37,000  Level Chicago Center
Sun 11:16:27 PM 41.4381 -89.9425 83° East 468 539 37,000  Level Chicago Center
Sun 11:17:27 PM 41.4533 -89.7711 81° East 468 539 37,000  Level Chicago Center
Sun 11:18:27 PM 41.4728 -89.5992 82° East 468 539 37,000  Level Chicago Center
Sun 11:19:27 PM 41.4897 -89.4275 82° East 468 539 37,000  Level Chicago Center
Sun 11:20:27 PM 41.5083 -89.2528 83° East 468 539 37,000  Level Chicago Center
Sun 11:21:27 PM 41.5228 -89.1031 82° East 463 533 37,000  Level Chicago Center
Sun 11:22:27 PM 41.5408 -88.9311 83° East 463 533 37,000  Level Chicago Center
Sun 11:23:27 PM 41.5569 -88.7533 82° East 470 541 37,000  Level Chicago Center
Sun 11:24:27 PM 41.5744 -88.5811 82° East 470 541 37,000  Level Chicago Center
Sun 11:25:27 PM 41.5919 -88.4031 82° East 470 541 37,000  Level Chicago Center
Sun 11:26:27 PM 41.6114 -88.2278 83° East 475 547 37,000  Level Chicago Center
Sun 11:27:27 PM 41.6281 -88.0469 84° East 481 554 37,000  Level Chicago Center
Sun 11:28:27 PM 41.6406 -87.8717 83° East 481 554 37,000  Level Chicago Center
Sun 11:29:27 PM 41.6569 -87.6936 83° East 481 554 37,000  Level Chicago Center
Sun 11:30:27 PM 41.6728 -87.5153 80° East 481 554 37,000  Level Chicago Center
Sun 11:31:27 PM 41.6950 -87.3394 78° East 481 554 37,000  Level Chicago Center
Sun 11:32:27 PM 41.7231 -87.1603 81° East 486 559 37,000  Level Chicago Center
Sun 11:33:27 PM 41.7444 -86.9872 77° East 486 559 37,000  Level Chicago Center
Sun 11:34:27 PM 41.7742 -86.8106 79° East 486 559 37,000  Level Chicago Center
Sun 11:35:27 PM 41.8011 -86.6200 79° East 486 559 37,000 -350 Level Chicago Center
Sun 11:36:27 PM 41.8258 -86.4433 79° East 481 554 36,300 -850 Descending Chicago Center
Sun 11:37:27 PM 41.8506 -86.2667 80° East 481 554 35,300 -950 Descending Chicago Center
Sun 11:38:27 PM 41.8747 -86.0869 80° East 486 559 34,400 -1,450 Descending Chicago Center
Sun 11:39:27 PM 41.8986 -85.9072 79° East 486 559 32,400 -2,550 Descending Chicago Center
Sun 11:40:27 PM 41.9242 -85.7244 80° East 486 559 29,300 -2,767 Descending Chicago Center
Sun 11:42:27 PM 41.9703 -85.3764 80° East 477 549 24,100 -2,567 Descending Cleveland Center
Sun 11:43:27 PM 41.9917 -85.2103 80° East 459 528 21,600 -2,200 Descending Cleveland Center
Sun 11:44:27 PM 42.0100 -85.0661 81° East 445 512 19,700 -1,300 Descending Cleveland Center
Sun 11:45:27 PM 42.0283 -84.9164 81° East 418 481 19,000 -800 Descending Cleveland Center
Sun 11:46:27 PM 42.0464 -84.7667 81° East 409 471 18,100 -850 Descending Cleveland Center
Sun 11:47:27 PM 42.0642 -84.6167 81° East 404 465 17,300 -900 Descending Cleveland Center
Sun 11:48:27 PM 42.0817 -84.4750 82° East 404 465 16,300 -1,000 Descending Cleveland Center
Sun 11:49:27 PM 42.0967 -84.3333 80° East 387 445 15,300 -1,400 Descending Cleveland Center
Sun 11:50:27 PM 42.1158 -84.1889 87° East 370 426 13,500 -2,550 Descending Cleveland Center
Sun 11:51:27 PM 42.1203 -84.0492 96° East 365 420 10,200 -1,800 Descending Cleveland Center
Sun 11:52:27 PM 42.1094 -83.9197 95° East 354 407 9,900 -500 Descending Cleveland Center
Sun 11:53:27 PM 42.1022 -83.8128 114° Southeast 306 352 9,200 -1,350 Descending Cleveland Center
Sun 11:54:27 PM 42.0714 -83.7189 105° East 269 310 7,200 -1,364 Descending Cleveland Center
Sun 11:55:39 PM 42.0531 -83.6258 97° East 263 303 6,200 -1,136 Descending Cleveland Center
Sun 11:56:39 PM 42.0450 -83.5331 51° Northeast 223 257 4,700 -1,400 Descending Cleveland Center
Sun 11:57:39 PM 42.0797 -83.4761 30° Northeast 190 219 3,400 -1,116 Descending Cleveland Center
Sun 11:58:48 PM 42.1308 -83.4364 29° Northeast 169 194 2,300 -941 Descending Cleveland Center
Sun 11:59:21 PM 42.1511 -83.4214 28° Northeast 157 181 1,800 -904 Descending FAA TRACON SMA TRACON (SMA)
Mon 12:00:01 AM 42.1778 -83.4019 28° Northeast 161 185 1,200 -750 Descending FAA TRACON SMA TRACON (SMA)
Mon 12:00:41 AM 42.2006 -83.3853 28° Northeast 160 184 800 -600 Descending FAA TRACON SMA TRACON (SMA)

Login

Don't have an account? Register now (free) for customized features, flight alerts, and more!